Terminal Aerodrome Forecast
Issued by NWS Shreveport, LA

Home | Current Version | Previous Version | Text Only | Print | Product List | Glossary On
Versions: 1 2 3 4 5 6 7 8 9 10 11 12 13 14 15 16
000
FTUS44 KSHV 271700
TAFLFK
TAF
KLFK 271720Z 2718/2818 09007KT P6SM VCTS SCT040CB SCT250
     FM280100 13004KT P6SM SCT050 BKN250
     FM280500 13004KT P6SM SCT100 SCT250
     FM281330 15005KT P6SM FEW050=

USA.gov is the U.S. government's official web portal to all federal, state and local government web resources and services.